This is the latest recevied weather packets stored in our database for station/object KK4KTV-13. If no packets are shown the sender has not sent any weather packets the latest 10 day(s).
| Time | Temp. | Humidity | Pressure | Rain* | Wind** | Luminosity | Snow |
|---|---|---|---|---|---|---|---|
| 1777088677 | 17.78° C | 91% | 1009.1 hPa | 0 mm | - | 0 W/m² | - |
| 1777088372 | 17.78° C | 88% | 1009.1 hPa | 0 mm | - | 0 W/m² | - |
| 1777088066 | 17.78° C | 87% | 1009.1 hPa | 0 mm | - | 0 W/m² | - |
| 1777087761 | 18.33° C | 86% | 1008.9 hPa | 0 mm | - | 0 W/m² | - |
| 1777087456 | 18.33° C | 85% | 1009.1 hPa | 0 mm | - | 0 W/m² | - |
| 1777087151 | 18.89° C | 84% | 1009.1 hPa | 0 mm | - | 0 W/m² | - |
| 1777086846 | 18.89° C | 83% | 1009.1 hPa | 0 mm | - | 0 W/m² | - |
| 1777086541 | 18.89° C | 82% | 1009.2 hPa | 0 mm | - | 0 W/m² | - |
| 1777086238 | 18.89° C | 81% | 1009 hPa | 0 mm | - | 0 W/m² | - |
| 1777085937 | 19.44° C | 80% | 1009 hPa | 0 mm | - | 0 W/m² | - |
| 1777085635 | 19.44° C | 80% | 1008.9 hPa | 0 mm | - | 0 W/m² | - |
| 1777085330 | 20° C | 77% | 1009.1 hPa | 0 mm | - | 0 W/m² | - |
| 1777085027 | 20° C | 76% | 1009.1 hPa | 0 mm | - | 0 W/m² | - |
| 1777084723 | 20.56° C | 72% | 1009.2 hPa | 0 mm | - | 0 W/m² | - |
| 1777084418 | 21.11° C | 70% | 1009.3 hPa | 0 mm | - | 0 W/m² | - |
| 1777084113 | 21.11° C | 68% | 1009.2 hPa | 0 mm | - | 0 W/m² | - |
| 1777083811 | 21.11° C | 67% | 1009 hPa | 0 mm | - | 0 W/m² | - |
| 1777083508 | 21.11° C | 67% | 1009.2 hPa | 0 mm | - | 0 W/m² | - |
| 1777083205 | 20.56° C | 70% | 1009.1 hPa | 0 mm | - | 0 W/m² | - |
| 1777082904 | 19.44° C | 76% | 1008.8 hPa | 0 mm | - | 0 W/m² | - |
| 1777082600 | 20° C | 75% | 1008.9 hPa | 0 mm | - | 0 W/m² | - |
| 1777082295 | 20° C | 74% | 1008.6 hPa | 0 mm | - | 0 W/m² | - |
| 1777081989 | 20° C | 74% | 1008.7 hPa | 0 mm | - | 0 W/m² | - |
| 1777081685 | 20° C | 73% | 1008.7 hPa | 0 mm | - | 0 W/m² | - |
| 1777081375 | 20° C | 73% | 1008.8 hPa | 0 mm | - | 0 W/m² | - |
* Rain latest hour (hover to see other rain measurements)
** Current wind speed in m/s (hover to see current wind gust speed)